createdAt,value
2022-11-05T00:00:35.649Z,96421.56
2022-11-05T00:03:20.878Z,96420.84
2022-11-05T00:06:09.498Z,96427.22
2022-11-05T00:08:54.747Z,96432.00
2022-11-05T00:11:41.318Z,96413.03
2022-11-05T00:14:26.196Z,96427.72
2022-11-05T00:16:52.776Z,96438.16
2022-11-05T00:19:19.317Z,96438.91
2022-11-05T00:22:08.845Z,96443.56
2022-11-05T00:24:53.639Z,96439.91
2022-11-05T00:27:20.127Z,96448.66
2022-11-05T00:29:46.569Z,96450.03
2022-11-05T00:32:13.078Z,96454.44
2022-11-05T00:34:39.501Z,96461.03
2022-11-05T00:37:06.018Z,96440.59
2022-11-05T00:39:32.477Z,96460.41
2022-11-05T00:42:17.715Z,96461.00
2022-11-05T00:45:00.826Z,96468.22
2022-11-05T00:47:45.998Z,96470.34
2022-11-05T00:50:12.962Z,96468.38
2022-11-05T00:52:57.809Z,96469.78
2022-11-05T00:55:25.982Z,96483.16
2022-11-05T00:57:52.505Z,96481.28
2022-11-05T01:00:19.071Z,96486.94
2022-11-05T01:02:46.533Z,96486.50
2022-11-05T01:05:13.942Z,96493.16
2022-11-05T01:07:40.969Z,96475.41
2022-11-05T01:10:08.128Z,96481.78
2022-11-05T01:12:34.704Z,96491.28
2022-11-05T01:15:01.454Z,96492.34
2022-11-05T01:17:27.949Z,96499.09
2022-11-05T01:19:54.381Z,96505.84
2022-11-05T01:22:20.944Z,96487.34
2022-11-05T01:24:47.372Z,96502.00
2022-11-05T01:27:13.918Z,96508.41
2022-11-05T01:29:40.406Z,96511.44
2022-11-05T01:32:06.894Z,96510.13
2022-11-05T01:34:33.445Z,96509.69
2022-11-05T01:36:59.993Z,96515.19
2022-11-05T01:39:26.450Z,96519.09
2022-11-05T01:41:52.888Z,96522.44
2022-11-05T01:44:38.197Z,96525.28
2022-11-05T01:47:04.599Z,96527.06
2022-11-05T01:49:33.987Z,96522.72
2022-11-05T01:52:03.015Z,96521.50
2022-11-05T01:54:32.042Z,96525.03
2022-11-05T01:57:08.013Z,96526.03
2022-11-05T01:59:36.310Z,96536.22
2022-11-05T02:02:03.687Z,96540.44
2022-11-05T02:04:31.931Z,96534.97
2022-11-05T02:06:59.194Z,96545.47
2022-11-05T02:09:30.148Z,96539.69
2022-11-05T02:11:57.109Z,96536.72
2022-11-05T02:14:23.601Z,96535.63
2022-11-05T02:16:58.273Z,96538.97
2022-11-05T02:19:39.038Z,96534.97
2022-11-05T02:22:05.496Z,96533.38
2022-11-05T02:25:04.154Z,96532.31
2022-11-05T02:27:36.488Z,96525.72
2022-11-05T02:30:21.831Z,96522.06
2022-11-05T02:33:03.529Z,96522.94
2022-11-05T02:35:45.265Z,96522.00
2022-11-05T02:38:16.751Z,96531.06
2022-11-05T02:40:43.134Z,96527.38
2022-11-05T02:43:14.972Z,96528.88
2022-11-05T02:45:59.808Z,96527.84
2022-11-05T02:48:29.541Z,96529.91
2022-11-05T02:51:00.186Z,96530.75
2022-11-05T02:53:45.379Z,96540.19
2022-11-05T02:56:21.254Z,96538.28
2022-11-05T02:58:48.119Z,96542.38
2022-11-05T03:01:14.573Z,96532.88
2022-11-05T03:03:43.320Z,96539.53
2022-11-05T03:06:28.612Z,96536.78
2022-11-05T03:08:57.894Z,96539.25
2022-11-05T03:11:26.856Z,96538.09
2022-11-05T03:13:56.319Z,96542.28
2022-11-05T03:16:29.764Z,96543.47
2022-11-05T03:19:04.525Z,96535.91
2022-11-05T03:21:48.808Z,96544.31
2022-11-05T03:24:21.213Z,96535.03
2022-11-05T03:26:51.586Z,96537.59
2022-11-05T03:29:22.097Z,96534.31
2022-11-05T03:31:49.966Z,96530.09
2022-11-05T03:34:18.492Z,96540.84
2022-11-05T03:36:47.087Z,96544.75
2022-11-05T03:39:16.037Z,96544.63
2022-11-05T03:41:44.464Z,96541.19
2022-11-05T03:44:13.152Z,96551.22
2022-11-05T03:46:45.180Z,96549.41
2022-11-05T03:49:15.511Z,96556.63
2022-11-05T03:51:45.973Z,96572.53
2022-11-05T03:54:12.832Z,96565.19
2022-11-05T03:56:44.501Z,96562.94
2022-11-05T03:59:11.559Z,96571.34
2022-11-05T04:01:39.087Z,96574.34
2022-11-05T04:04:06.516Z,96583.09
2022-11-05T04:06:51.448Z,96588.66
2022-11-05T04:09:36.502Z,96582.16
2022-11-05T04:12:21.500Z,96594.75
2022-11-05T04:14:48.044Z,96595.78
2022-11-05T04:17:14.620Z,96593.88
2022-11-05T04:20:00.729Z,96603.53
2022-11-05T04:22:46.920Z,96602.38
2022-11-05T04:25:14.255Z,96608.41
2022-11-05T04:27:40.692Z,96612.47
2022-11-05T04:30:20.038Z,96615.66
2022-11-05T04:32:56.390Z,96614.88
2022-11-05T04:35:23.166Z,96617.81
2022-11-05T04:37:49.652Z,96618.75
2022-11-05T04:40:16.117Z,96620.06
2022-11-05T04:42:42.540Z,96627.69
2022-11-05T04:45:08.938Z,96624.50
2022-11-05T04:47:35.400Z,96637.34
2022-11-05T04:50:02.082Z,96629.50
2022-11-05T04:52:28.810Z,96632.50
2022-11-05T04:54:55.270Z,96634.81
2022-11-05T04:57:21.682Z,96635.75
2022-11-05T04:59:48.479Z,96637.72
2022-11-05T05:02:15.013Z,96639.28
2022-11-05T05:04:41.488Z,96635.66
2022-11-05T05:07:07.942Z,96637.25
2022-11-05T05:09:34.363Z,96644.06
2022-11-05T05:12:02.531Z,96639.84
2022-11-05T05:14:29.078Z,96641.81
2022-11-05T05:16:55.501Z,96650.47
2022-11-05T05:19:23.632Z,96637.03
2022-11-05T05:21:50.136Z,96649.09
2022-11-05T05:24:18.623Z,96649.53
2022-11-05T05:26:46.429Z,96647.25
2022-11-05T05:29:13.502Z,96647.50
2022-11-05T05:31:40.102Z,96650.53
2022-11-05T05:34:06.993Z,96656.69
2022-11-05T05:36:33.590Z,96650.47
2022-11-05T05:39:00.057Z,96656.75
2022-11-05T05:41:27.453Z,96649.50
2022-11-05T05:43:54.055Z,96654.50
2022-11-05T05:46:20.479Z,96662.34
2022-11-05T05:48:50.381Z,96663.94
2022-11-05T05:51:17.242Z,96664.38
2022-11-05T05:53:43.833Z,96666.78
2022-11-05T05:56:10.832Z,96676.72
2022-11-05T05:58:38.782Z,96678.28
2022-11-05T06:01:06.660Z,96682.59
2022-11-05T06:03:33.133Z,96685.31
2022-11-05T06:06:00.481Z,96681.66
2022-11-05T06:08:27.059Z,96683.19
2022-11-05T06:10:53.596Z,96690.41
2022-11-05T06:13:20.035Z,96694.44
2022-11-05T06:15:46.474Z,96686.16
2022-11-05T06:18:12.915Z,96691.41
2022-11-05T06:20:39.567Z,96688.50
2022-11-05T06:23:06.024Z,96693.56
2022-11-05T06:25:35.938Z,96696.19
2022-11-05T06:28:04.938Z,96703.94
2022-11-05T06:30:31.351Z,96706.63
2022-11-05T06:33:01.840Z,96718.84
2022-11-05T06:35:28.274Z,96725.28
2022-11-05T06:37:58.559Z,96725.72
2022-11-05T06:40:25.020Z,96725.81
2022-11-05T06:42:54.765Z,96725.72
2022-11-05T06:45:21.278Z,96734.91
2022-11-05T06:47:47.737Z,96740.94
2022-11-05T06:50:14.173Z,96743.94
2022-11-05T06:52:41.341Z,96748.28
2022-11-05T06:55:08.156Z,96751.91
2022-11-05T06:57:36.939Z,96750.03
2022-11-05T07:00:07.885Z,96761.63
2022-11-05T07:02:34.695Z,96756.22
2022-11-05T07:05:01.144Z,96756.34
2022-11-05T07:07:27.774Z,96768.75
2022-11-05T07:09:54.183Z,96769.31
2022-11-05T07:12:20.649Z,96776.81
2022-11-05T07:14:47.025Z,96772.38
2022-11-05T07:17:13.457Z,96785.09
2022-11-05T07:19:39.968Z,96788.72
2022-11-05T07:22:06.417Z,96787.28
2022-11-05T07:24:32.865Z,96795.31
2022-11-05T07:26:59.399Z,96801.41
2022-11-05T07:29:25.820Z,96812.69
2022-11-05T07:31:52.249Z,96811.16
2022-11-05T07:34:18.699Z,96807.47
2022-11-05T07:36:45.121Z,96809.94
2022-11-05T07:39:11.559Z,96814.19
2022-11-05T07:41:37.963Z,96821.59
2022-11-05T07:44:04.574Z,96818.13
2022-11-05T07:46:30.995Z,96826.84
2022-11-05T07:48:57.424Z,96825.25
2022-11-05T07:51:23.968Z,96828.00
2022-11-05T07:53:50.452Z,96832.22
2022-11-05T07:56:16.952Z,96832.28
2022-11-05T07:58:43.415Z,96828.66
2022-11-05T08:01:10.021Z,96831.50
2022-11-05T08:03:36.729Z,96833.59
2022-11-05T08:06:03.257Z,96824.19
2022-11-05T08:08:29.827Z,96838.00
2022-11-05T08:11:02.052Z,96837.25
2022-11-05T08:13:28.488Z,96839.00
2022-11-05T08:15:56.174Z,96834.97
2022-11-05T08:18:22.623Z,96834.66
2022-11-05T08:20:49.161Z,96838.97
2022-11-05T08:23:16.258Z,96845.53
2022-11-05T08:25:42.823Z,96835.75
2022-11-05T08:28:11.095Z,96836.75
2022-11-05T08:30:38.374Z,96840.13
2022-11-05T08:33:06.474Z,96836.81
2022-11-05T08:35:33.822Z,96844.13
2022-11-05T08:38:02.674Z,96841.16
2022-11-05T08:40:32.848Z,96842.75
2022-11-05T08:43:00.133Z,96845.63
2022-11-05T08:45:27.313Z,96850.03
2022-11-05T08:48:04.662Z,96846.34
2022-11-05T08:50:31.135Z,96847.22
2022-11-05T08:52:57.740Z,96841.97
2022-11-05T08:55:24.161Z,96842.22
2022-11-05T08:57:58.045Z,96848.50
2022-11-05T09:02:33.534Z,96845.72
2022-11-05T09:05:00.050Z,96857.53
2022-11-05T09:07:26.531Z,96858.06
2022-11-05T09:09:52.968Z,96856.97
2022-11-05T09:12:19.506Z,96850.59
2022-11-05T09:14:45.956Z,96858.31
2022-11-05T09:17:19.718Z,96859.22
2022-11-05T09:19:46.472Z,96859.69
2022-11-05T09:22:13.049Z,96863.41
2022-11-05T09:24:40.241Z,96867.94
2022-11-05T09:27:10.177Z,96868.94
2022-11-05T09:29:36.749Z,96868.13
2022-11-05T09:32:03.341Z,96872.00
2022-11-05T09:34:29.802Z,96877.91
2022-11-05T09:36:57.236Z,96876.16
2022-11-05T09:39:23.720Z,96876.00
2022-11-05T09:41:51.620Z,96882.75
2022-11-05T09:44:20.303Z,96885.56
2022-11-05T09:47:48.077Z,96890.25
2022-11-05T09:50:31.239Z,96889.97
2022-11-05T09:52:58.018Z,96890.66
2022-11-05T09:55:35.877Z,96893.72
2022-11-05T09:58:10.944Z,96898.88
2022-11-05T10:00:37.793Z,96905.09
2022-11-05T10:03:10.538Z,96900.63
2022-11-05T10:05:38.396Z,96903.88
2022-11-05T10:08:23.672Z,96900.88
2022-11-05T10:10:55.215Z,96889.50
2022-11-05T10:13:28.882Z,96898.81
2022-11-05T10:16:02.872Z,96907.13
2022-11-05T10:18:32.662Z,96900.44
2022-11-05T10:20:59.225Z,96901.94
2022-11-05T10:23:26.252Z,96908.03
2022-11-05T10:25:58.141Z,96908.59
2022-11-05T10:28:28.004Z,96903.03
2022-11-05T10:31:04.445Z,96904.28
2022-11-05T10:33:35.816Z,96902.13
2022-11-05T10:36:10.982Z,96906.13
2022-11-05T10:38:37.859Z,96894.25
2022-11-05T10:41:26.244Z,96916.06
2022-11-05T10:44:18.973Z,96920.47
2022-11-05T10:47:06.859Z,96922.56
2022-11-05T10:49:42.999Z,96916.50
2022-11-05T10:52:28.206Z,96927.66
2022-11-05T10:54:59.748Z,96918.53
2022-11-05T10:57:28.010Z,96935.75
2022-11-05T11:00:16.995Z,96927.53
2022-11-05T11:02:51.717Z,96930.63
2022-11-05T11:05:36.778Z,96924.69
2022-11-05T11:08:09.016Z,96928.22
2022-11-05T11:10:53.444Z,96937.00
2022-11-05T11:13:24.037Z,96935.41
2022-11-05T11:32:21.588Z,96936.44
2022-11-05T11:34:53.903Z,96941.56
2022-11-05T11:37:34.199Z,96904.66
2022-11-05T11:40:16.271Z,96932.09
2022-11-05T11:42:47.378Z,96938.63
2022-11-05T11:45:26.926Z,96940.25
2022-11-05T11:47:56.444Z,96937.03
2022-11-05T11:50:42.358Z,96941.34
2022-11-05T11:53:21.039Z,96941.06
2022-11-05T11:56:16.964Z,96943.47
2022-11-05T11:58:49.409Z,96940.94
2022-11-05T12:01:34.705Z,96939.94
2022-11-05T12:04:28.200Z,96947.84
2022-11-05T12:07:27.781Z,96941.59
2022-11-05T12:10:39.601Z,96946.41
2022-11-05T12:13:39.492Z,96931.88
2022-11-05T12:16:14.411Z,96901.84
2022-11-05T12:19:17.762Z,96935.44
2022-11-05T12:22:13.824Z,96930.53
2022-11-05T12:24:55.578Z,96934.38
2022-11-05T12:28:00.510Z,96923.41
2022-11-05T12:30:40.783Z,96933.25
2022-11-05T12:33:22.505Z,96928.97
2022-11-05T12:35:56.576Z,96932.84
2022-11-05T12:38:39.093Z,96938.06
2022-11-05T12:41:23.220Z,96925.22
2022-11-05T12:44:09.084Z,96941.69
2022-11-05T12:46:41.732Z,96941.06
2022-11-05T12:49:33.069Z,96916.78
2022-11-05T12:52:21.866Z,96940.25
2022-11-05T12:55:16.174Z,96945.22
2022-11-05T12:57:46.082Z,96953.84
2022-11-05T13:00:15.679Z,96948.28
2022-11-05T13:02:53.453Z,96942.38
2022-11-05T13:05:35.216Z,96959.50
2022-11-05T13:08:09.356Z,96953.06
2022-11-05T13:10:51.962Z,96961.63
2022-11-05T13:13:40.824Z,96966.16
2022-11-05T13:16:22.603Z,96958.06
2022-11-05T13:18:53.883Z,96966.66
2022-11-05T13:21:24.231Z,96967.31
2022-11-05T13:24:02.374Z,96955.94
2022-11-05T13:26:41.679Z,96966.31
2022-11-05T13:29:15.530Z,96976.81
2022-11-05T13:31:57.898Z,96980.25
2022-11-05T13:34:24.489Z,96980.59
2022-11-05T13:37:12.520Z,96982.63
2022-11-05T13:39:58.722Z,96992.78
2022-11-05T13:43:02.897Z,96992.50
2022-11-05T13:45:54.396Z,96996.84
2022-11-05T13:49:04.686Z,96917.72
2022-11-05T13:51:39.567Z,96987.00
2022-11-05T13:54:13.340Z,96989.19
2022-11-05T13:57:04.143Z,96991.31
2022-11-05T13:59:56.581Z,96983.28
2022-11-05T14:02:31.285Z,96992.81
2022-11-05T14:05:01.724Z,96980.28
2022-11-05T14:07:36.391Z,96995.28
2022-11-05T14:10:11.866Z,96999.31
2022-11-05T14:12:40.510Z,97000.69
2022-11-05T14:15:18.249Z,96995.09
2022-11-05T14:18:00.707Z,96999.88
2022-11-05T14:20:58.313Z,97005.16
2022-11-05T14:23:25.049Z,97007.78
2022-11-05T14:25:56.215Z,97007.09
2022-11-05T14:28:34.700Z,97001.25
2022-11-05T14:31:21.111Z,97000.38
2022-11-05T14:34:02.871Z,97000.38
2022-11-05T14:36:36.227Z,97002.06
2022-11-05T14:39:30.228Z,97010.38
2022-11-05T14:42:12.069Z,96984.44
2022-11-05T14:45:00.869Z,97003.19
2022-11-05T14:47:32.856Z,97002.25
2022-11-05T14:50:19.614Z,97009.56
2022-11-05T14:52:58.145Z,97015.94
2022-11-05T14:55:43.241Z,97008.63
2022-11-05T14:58:19.091Z,97023.22
2022-11-05T15:00:47.398Z,97017.50
2022-11-05T15:03:55.286Z,97022.50
2022-11-05T15:06:24.228Z,97032.03
2022-11-05T15:08:50.694Z,97035.69
2022-11-05T15:11:46.056Z,97039.91
2022-11-05T15:14:18.377Z,97038.75
2022-11-05T15:16:51.693Z,97029.97
2022-11-05T15:19:32.304Z,97022.84
2022-11-05T15:22:03.276Z,97038.84
2022-11-05T15:24:31.419Z,97037.47
2022-11-05T15:27:11.678Z,97035.22
2022-11-05T15:29:38.377Z,97031.53
2022-11-05T15:32:05.256Z,97033.19
2022-11-05T15:34:35.519Z,97038.50
2022-11-05T15:37:11.220Z,97042.13
2022-11-05T15:39:43.169Z,97047.59
2022-11-05T15:42:15.539Z,97051.50
2022-11-05T15:44:45.014Z,97051.72
2022-11-05T15:47:16.563Z,97050.69
2022-11-05T15:49:46.225Z,97050.13
2022-11-05T15:52:15.795Z,97032.00
2022-11-05T15:54:43.059Z,97059.41
2022-11-05T15:57:28.308Z,97043.41
2022-11-05T15:59:55.087Z,97061.31
2022-11-05T16:02:33.624Z,97066.97
2022-11-05T16:05:02.557Z,97069.81
2022-11-05T16:07:30.020Z,97070.47
2022-11-05T16:09:59.209Z,97066.31
2022-11-05T16:12:36.796Z,97073.50
2022-11-05T16:15:29.477Z,97072.28
2022-11-05T16:17:58.395Z,97075.94
2022-11-05T16:20:33.907Z,97079.34
2022-11-05T16:23:07.121Z,97083.03
2022-11-05T16:25:41.959Z,97085.44
2022-11-05T16:28:23.722Z,97093.72
2022-11-05T16:30:57.369Z,97082.22
2022-11-05T16:33:26.382Z,97087.69
2022-11-05T16:35:53.325Z,97063.22
2022-11-05T16:38:20.510Z,97097.41
2022-11-05T16:40:47.037Z,97080.38
2022-11-05T16:43:24.538Z,97096.97
2022-11-05T16:45:57.933Z,97096.19
2022-11-05T16:48:25.264Z,97102.00
2022-11-05T16:50:52.337Z,97101.03
2022-11-05T16:53:18.853Z,97106.31
2022-11-05T16:55:45.915Z,97111.88
2022-11-05T16:58:21.741Z,97114.00
2022-11-05T17:00:51.176Z,97116.94
2022-11-05T17:03:18.497Z,97097.88
2022-11-05T17:05:45.444Z,97136.41
2022-11-05T17:08:12.297Z,97121.47
2022-11-05T17:10:39.240Z,97096.50
2022-11-05T17:13:05.809Z,97129.81
2022-11-05T17:15:36.238Z,97130.63
2022-11-05T17:18:04.576Z,97131.69
2022-11-05T17:20:41.647Z,97141.78
2022-11-05T17:23:12.419Z,97140.97
2022-11-05T17:25:45.614Z,97143.88
2022-11-05T17:28:13.379Z,97149.28
2022-11-05T17:30:41.637Z,97160.19
2022-11-05T17:33:10.747Z,97134.13
2022-11-05T17:35:39.487Z,97149.38
2022-11-05T17:38:05.924Z,97154.03
2022-11-05T17:40:34.447Z,97164.66
2022-11-05T17:43:01.497Z,97139.03
2022-11-05T17:45:28.396Z,97140.44
2022-11-05T17:47:55.196Z,97166.84
2022-11-05T17:50:21.909Z,97141.63
2022-11-05T17:52:48.552Z,97153.66
2022-11-05T17:55:17.752Z,97154.84
2022-11-05T17:57:46.534Z,97172.94
2022-11-05T18:00:15.760Z,97172.13
2022-11-05T18:02:42.581Z,97182.38
2022-11-05T18:05:09.537Z,97171.78
2022-11-05T18:07:36.078Z,97166.75
2022-11-05T18:10:02.723Z,97182.19
2022-11-05T18:12:29.367Z,97158.16
2022-11-05T18:14:55.738Z,97184.63
2022-11-05T18:17:22.187Z,97157.38
2022-11-05T18:22:33.017Z,97185.13
2022-11-05T18:24:59.381Z,97192.31
2022-11-05T18:27:27.639Z,97181.94
2022-11-05T18:29:54.753Z,97173.03
2022-11-05T18:32:21.191Z,97161.63
2022-11-05T18:34:47.576Z,97184.72
2022-11-05T18:37:14.588Z,97165.66
2022-11-05T18:39:41.791Z,97149.78
2022-11-05T18:42:08.373Z,97152.22
2022-11-05T18:44:38.945Z,97179.72
2022-11-05T18:47:06.801Z,97154.66
2022-11-05T18:49:33.835Z,97170.91
2022-11-05T18:52:00.548Z,97163.09
2022-11-05T18:54:27.089Z,97174.75
2022-11-05T18:56:53.500Z,97189.59
2022-11-05T18:59:38.734Z,97191.59
2022-11-05T19:02:07.879Z,97168.81
2022-11-05T19:04:38.363Z,97196.66
2022-11-05T19:07:06.081Z,97209.31
2022-11-05T19:09:37.393Z,97185.25
2022-11-05T19:12:05.026Z,97190.69
2022-11-05T19:14:32.031Z,97168.81
2022-11-05T19:16:59.784Z,97221.75
2022-11-05T19:19:26.938Z,97200.91
2022-11-05T19:21:53.526Z,97222.56
2022-11-05T19:24:20.284Z,97190.06
2022-11-05T19:26:47.456Z,97194.69
2022-11-05T19:29:13.994Z,97182.63
2022-11-05T19:31:40.538Z,97177.63
2022-11-05T19:34:07.279Z,97216.53
2022-11-05T19:36:34.201Z,97154.00
2022-11-05T19:39:06.433Z,97194.03
2022-11-05T19:41:33.428Z,97170.78
2022-11-05T19:44:01.551Z,97186.66
2022-11-05T19:46:29.230Z,97198.28
2022-11-05T19:48:55.730Z,97199.09
2022-11-05T19:51:23.559Z,97207.53
2022-11-05T19:53:52.658Z,97191.69
2022-11-05T19:56:21.997Z,97198.13
2022-11-05T19:58:49.333Z,97215.75
2022-11-05T20:01:17.433Z,97220.81
2022-11-05T20:03:44.770Z,97206.38
2022-11-05T20:06:14.494Z,97227.44
2022-11-05T20:08:59.742Z,97208.00
2022-11-05T20:11:29.064Z,97209.00
2022-11-05T20:13:56.386Z,97191.97
2022-11-05T20:16:29.405Z,97218.03
2022-11-05T20:18:56.924Z,97224.25
2022-11-05T20:21:23.588Z,97222.28
2022-11-05T20:23:50.177Z,97219.25
2022-11-05T20:26:16.613Z,97225.88
2022-11-05T20:28:43.757Z,97230.75
2022-11-05T20:31:13.144Z,97197.25
2022-11-05T20:33:40.815Z,97219.53
2022-11-05T20:36:10.979Z,97207.69
2022-11-05T20:38:37.489Z,97229.56
2022-11-05T20:41:07.878Z,97225.16
2022-11-05T20:43:34.497Z,97239.22
2022-11-05T20:46:00.999Z,97213.53
2022-11-05T20:48:30.032Z,97233.81
2022-11-05T20:50:56.524Z,97245.03
2022-11-05T20:53:22.899Z,97246.06
2022-11-05T20:55:49.436Z,97214.56
2022-11-05T20:58:16.673Z,97240.44
2022-11-05T21:00:52.166Z,97243.63
2022-11-05T21:03:18.943Z,97246.47
2022-11-05T21:05:52.276Z,97235.41
2022-11-05T21:08:20.073Z,97232.44
2022-11-05T21:10:51.003Z,97257.09
2022-11-05T21:13:18.368Z,97248.44
2022-11-05T21:15:53.238Z,97249.88
2022-11-05T21:18:22.224Z,97216.97
2022-11-05T21:20:48.743Z,97205.13
2022-11-05T21:23:15.650Z,97256.53
2022-11-05T21:25:43.453Z,97249.69
2022-11-05T21:28:11.691Z,97248.69
2022-11-05T21:30:42.292Z,97255.91
2022-11-05T21:33:09.218Z,97247.50
2022-11-05T21:35:40.492Z,97225.81
2022-11-05T21:38:07.279Z,97249.88
2022-11-05T21:40:33.821Z,97244.28
2022-11-05T21:43:00.239Z,97251.72
2022-11-05T21:45:26.700Z,97241.66
2022-11-05T21:47:53.094Z,97264.75
2022-11-05T21:50:21.957Z,97258.34
2022-11-05T21:53:07.389Z,97244.28
2022-11-05T21:55:52.497Z,97239.66
2022-11-05T21:58:37.983Z,97203.66
2022-11-05T22:01:04.661Z,97229.78
2022-11-05T22:03:31.195Z,97221.13
2022-11-05T22:05:57.581Z,97260.91
2022-11-05T22:08:24.061Z,97233.97
2022-11-05T22:10:50.453Z,97252.44
2022-11-05T22:13:16.929Z,97254.84
2022-11-05T22:15:43.291Z,97244.41
2022-11-05T22:18:09.985Z,97220.31
2022-11-05T22:20:39.826Z,97207.66
2022-11-05T22:23:10.884Z,97181.38
2022-11-05T22:25:37.967Z,97156.88
2022-11-05T22:28:04.637Z,97228.00
2022-11-05T22:30:34.696Z,97227.59
2022-11-05T22:33:01.230Z,97241.25
2022-11-05T22:35:27.735Z,97241.66
2022-11-05T22:37:54.533Z,97222.41
2022-11-05T22:40:23.856Z,97225.59
2022-11-05T22:42:50.798Z,97249.28
2022-11-05T22:45:17.412Z,97225.00
2022-11-05T22:47:43.918Z,97210.09
2022-11-05T22:50:10.270Z,97247.69
2022-11-05T22:52:36.791Z,97198.44
2022-11-05T22:55:06.076Z,97236.03
2022-11-05T22:57:32.662Z,97220.13
2022-11-05T23:17:38.305Z,97243.53
2022-11-05T23:20:25.764Z,97248.81
2022-11-05T23:23:10.878Z,97249.63
2022-11-05T23:25:37.460Z,97246.81
2022-11-05T23:28:07.497Z,97243.22
2022-11-05T23:30:34.144Z,97234.38
2022-11-05T23:33:00.695Z,97236.78
2022-11-05T23:35:46.366Z,97231.34
2022-11-05T23:38:31.461Z,97234.03
2022-11-05T23:41:20.640Z,97243.25
2022-11-05T23:44:05.898Z,97252.06
2022-11-05T23:46:55.778Z,97249.66
2022-11-05T23:49:22.494Z,97238.19
2022-11-05T23:51:49.322Z,97244.78
2022-11-05T23:54:16.054Z,97232.34
2022-11-05T23:56:42.631Z,97235.16
2022-11-05T23:59:09.590Z,97230.56
